CheckWX is a tool to help pilots better visualize weather data.  It is not intended as a substitute for an official pre-flight weather briefing.

13:19:43 UTC

EEKE METAR
Kuressaare Airport
Kuressaare, Estonia
Current

30 mins ago

EEKE 211250Z 33010KT 280V010 9999 BKN025 15/10 Q1011
Observed
Sep-21 @ 12:50 UTC
Wind
  • 330° at 10 KTS
Visibility
10,000+ meters
Flight Rules
MVFR
Cloud Levels
  • Broken at 2,500' AGL
Temperature
15°C / 59°F
Dewpoint
10°C / 50°F
Humidity
72%
Altimeter
29.85" Hg
Pressure
1010.92 hPa
Previous

1 hour ago

EEKE 211150Z AUTO 31012KT 280V340 9999NDV BKN024 BKN028 15/10 Q1011
Observed
Sep-21 @ 11:50 UTC
Wind
  • 310° at 12 KTS
Visibility
Cloud Levels
  • Broken at 2,400' AGL
  • Broken at 2,800' AGL
Temperature
15°C / 59°F
Dewpoint
10°C / 50°F
Humidity
72%
Altimeter
29.85" Hg
Pressure
1010.92 hPa
Previous

2 hours ago

EEKE 211050Z 31011KT 280V350 9999 SCT024 BKN041 15/10 Q1011
Observed
Sep-21 @ 10:50 UTC
Wind
  • 310° at 11 KTS
Visibility
10,000+ meters
Flight Rules
VFR
Cloud Levels
  • Scattered at 2,400' AGL
  • Broken at 4,100' AGL
Temperature
15°C / 59°F
Dewpoint
10°C / 50°F
Humidity
72%
Altimeter
29.85" Hg
Pressure
1010.92 hPa